createdAt,value
2022-10-26T00:01:18.741Z,66520.56
2022-10-26T00:06:25.322Z,66404.00
2022-10-26T00:11:30.497Z,66396.06
2022-10-26T00:16:34.192Z,66357.78
2022-10-26T00:21:37.883Z,66296.25
2022-10-26T00:26:43.163Z,66317.53
2022-10-26T00:31:46.937Z,66329.44
2022-10-26T00:36:50.637Z,66337.03
2022-10-26T00:41:55.732Z,66312.31
2022-10-26T00:46:59.422Z,66259.16
2022-10-26T00:52:03.212Z,66230.19
2022-10-26T00:57:08.915Z,66233.84
2022-10-26T01:02:13.296Z,66233.84
2022-10-26T01:07:17.363Z,66249.06
2022-10-26T01:12:22.414Z,66269.88
2022-10-26T01:17:44.281Z,66298.22
2022-10-26T01:22:55.294Z,66333.81
2022-10-26T01:28:03.757Z,66337.38
2022-10-26T01:33:36.199Z,66334.16
2022-10-26T01:38:53.541Z,66327.28
2022-10-26T01:43:58.657Z,66369.66
2022-10-26T01:49:09.832Z,66386.84
2022-10-26T01:54:13.476Z,66408.41
2022-10-26T01:59:48.653Z,66457.25
2022-10-26T02:05:09.057Z,66435.19
2022-10-26T02:10:23.944Z,66429.72
2022-10-26T02:15:35.156Z,66435.19
2022-10-26T02:20:44.457Z,66483.59
2022-10-26T02:25:54.648Z,66539.84
2022-10-26T02:31:00.827Z,66420.31
2022-10-26T02:36:10.125Z,66378.78
2022-10-26T02:41:16.196Z,66397.56
2022-10-26T02:46:24.128Z,66402.88
2022-10-26T02:51:35.925Z,66359.47
2022-10-26T02:56:48.219Z,66364.75
2022-10-26T03:01:53.200Z,66406.16
2022-10-26T03:06:58.612Z,66443.69
2022-10-26T03:12:02.513Z,66399.72
2022-10-26T03:17:06.272Z,66411.09
2022-10-26T03:22:11.415Z,66407.22
2022-10-26T03:27:15.216Z,66405.09
2022-10-26T03:32:18.935Z,66420.22
2022-10-26T03:37:24.056Z,66407.53
2022-10-26T03:42:28.077Z,66418.44
2022-10-26T03:47:31.857Z,66451.81
2022-10-26T03:52:36.973Z,66432.50
2022-10-26T03:57:44.258Z,66473.38
2022-10-26T04:02:55.882Z,66443.78
2022-10-26T04:08:03.232Z,66472.22
2022-10-26T04:13:07.011Z,66571.72
2022-10-26T04:18:13.040Z,66566.88
2022-10-26T04:23:19.820Z,66584.53
2022-10-26T04:28:23.536Z,66612.03
2022-10-26T04:33:27.344Z,66542.75
2022-10-26T04:38:32.468Z,66613.56
2022-10-26T04:43:36.312Z,66558.66
2022-10-26T04:48:40.401Z,66544.59
2022-10-26T04:53:45.534Z,66616.88
2022-10-26T04:58:49.490Z,66554.44
2022-10-26T05:03:54.113Z,66520.50
2022-10-26T05:08:59.335Z,66544.91
2022-10-26T05:14:03.265Z,66623.31
2022-10-26T05:19:06.965Z,66670.66
2022-10-26T05:24:12.619Z,66647.44
2022-10-26T05:29:16.411Z,66659.97
2022-10-26T05:34:20.205Z,66547.44
2022-10-26T05:39:25.285Z,66523.81
2022-10-26T05:44:29.057Z,66502.75
2022-10-26T05:49:32.807Z,66494.72
2022-10-26T05:54:37.872Z,66485.19
2022-10-26T05:59:42.174Z,66505.06
2022-10-26T06:04:48.511Z,66480.44
2022-10-26T06:09:54.736Z,66499.09
2022-10-26T06:14:59.813Z,66518.41
2022-10-26T06:20:18.255Z,66578.72
2022-10-26T06:25:33.853Z,66618.03
2022-10-26T06:30:38.040Z,66615.09
2022-10-26T06:35:51.593Z,66535.69
2022-10-26T06:40:58.442Z,66531.84
2022-10-26T06:46:13.029Z,66490.56
2022-10-26T06:51:18.382Z,66606.66
2022-10-26T06:56:24.858Z,66608.28
2022-10-26T07:01:28.792Z,66574.41
2022-10-26T07:06:34.434Z,66531.41
2022-10-26T07:11:42.307Z,66564.75
2022-10-26T07:16:46.193Z,66557.22
2022-10-26T07:21:50.059Z,66586.69
2022-10-26T07:26:56.985Z,66623.94
2022-10-26T07:32:00.685Z,66583.38
2022-10-26T07:37:04.514Z,66634.00
2022-10-26T07:42:10.249Z,66653.97
2022-10-26T07:47:14.038Z,66577.03
2022-10-26T07:52:17.818Z,66595.28
2022-10-26T07:57:23.007Z,66601.75
2022-10-26T08:02:27.080Z,66624.94
2022-10-26T08:07:30.999Z,66700.72
2022-10-26T08:12:36.177Z,66765.34
2022-10-26T08:17:40.164Z,66688.31
2022-10-26T08:22:43.914Z,66672.72
2022-10-26T08:27:49.392Z,66677.09
2022-10-26T08:32:59.897Z,66733.53
2022-10-26T08:38:03.920Z,66722.69
2022-10-26T08:43:17.569Z,66712.00
2022-10-26T08:48:25.517Z,66745.75
2022-10-26T08:53:35.090Z,66812.13
2022-10-26T08:58:44.873Z,66810.50
2022-10-26T09:03:48.921Z,66898.31
2022-10-26T09:09:02.796Z,66851.97
2022-10-26T09:14:14.841Z,66839.13
2022-10-26T09:19:45.631Z,66884.38
2022-10-26T09:24:54.839Z,66777.72
2022-10-26T09:30:05.181Z,66828.28
2022-10-26T09:35:16.929Z,66824.66
2022-10-26T09:40:26.531Z,66798.66
2022-10-26T09:45:36.797Z,66853.50
2022-10-26T09:50:43.991Z,66871.91
2022-10-26T09:55:52.053Z,66894.03
2022-10-26T10:00:57.846Z,66919.75
2022-10-26T10:06:17.561Z,66934.94
2022-10-26T10:11:21.249Z,66922.63
2022-10-26T10:16:27.496Z,66874.19
2022-10-26T10:21:39.047Z,66863.28
2022-10-26T10:26:57.996Z,66786.19
2022-10-26T10:32:04.604Z,66867.59
2022-10-26T10:37:23.424Z,66863.28
2022-10-26T10:42:29.014Z,66833.75
2022-10-26T10:47:35.316Z,66848.81
2022-10-26T10:52:39.162Z,66866.53
2022-10-26T10:57:55.577Z,66898.91
2022-10-26T11:03:36.067Z,66871.84
2022-10-26T11:08:47.654Z,66883.13
2022-10-26T11:13:56.996Z,66864.34
2022-10-26T11:19:06.035Z,66888.59
2022-10-26T11:24:21.579Z,66993.28
2022-10-26T11:29:38.251Z,67076.28
2022-10-26T11:34:49.268Z,66964.66
2022-10-26T11:40:03.594Z,66964.59
2022-10-26T11:45:17.860Z,67143.25
2022-10-26T11:50:24.096Z,67271.69
2022-10-26T11:55:30.390Z,67190.19
2022-10-26T12:00:35.919Z,67174.47
2022-10-26T12:05:45.110Z,67373.25
2022-10-26T12:10:58.368Z,67450.03
2022-10-26T12:16:08.364Z,67530.06
2022-10-26T12:21:13.687Z,67414.28
2022-10-26T12:26:40.252Z,67460.78
2022-10-26T12:31:45.223Z,67615.13
2022-10-26T12:36:50.432Z,67443.44
2022-10-26T12:41:59.206Z,67544.63
2022-10-26T12:47:03.700Z,67352.59
2022-10-26T12:52:21.099Z,67387.38
2022-10-26T12:57:34.207Z,67083.22
2022-10-26T13:02:53.073Z,67035.97
2022-10-26T13:08:03.803Z,67257.63
2022-10-26T13:13:10.147Z,67450.03
2022-10-26T13:18:18.977Z,67385.69
2022-10-26T13:23:26.969Z,67526.84
2022-10-26T13:28:45.226Z,67324.63
2022-10-26T13:33:53.367Z,67356.03
2022-10-26T13:39:02.235Z,67298.69
2022-10-26T13:44:16.613Z,67376.50
2022-10-26T13:49:25.825Z,67434.28
2022-10-26T13:54:35.372Z,67349.53
2022-10-26T13:59:45.531Z,67383.47
2022-10-26T14:04:52.877Z,67453.75
2022-10-26T14:09:58.915Z,67348.88
2022-10-26T14:15:08.908Z,67244.09
2022-10-26T14:20:20.006Z,67282.00
2022-10-26T14:25:35.925Z,67280.31
2022-10-26T14:30:52.409Z,67253.31
2022-10-26T14:35:57.519Z,67238.19
2022-10-26T14:41:01.562Z,67251.66
2022-10-26T14:46:07.410Z,67317.53
2022-10-26T14:51:18.000Z,67233.41
2022-10-26T14:56:25.898Z,67306.25
2022-10-26T15:01:48.273Z,67284.03
2022-10-26T15:06:52.684Z,67225.16
2022-10-26T15:11:56.581Z,66970.00
2022-10-26T15:17:02.809Z,66908.00
2022-10-26T15:22:06.734Z,66784.03
2022-10-26T15:27:16.364Z,66724.44
2022-10-26T15:32:28.357Z,66682.41
2022-10-26T15:37:32.293Z,66657.81
2022-10-26T15:42:38.879Z,66639.47
2022-10-26T15:47:44.502Z,66729.69
2022-10-26T15:52:49.431Z,66644.84
2022-10-26T15:57:53.738Z,66669.19
2022-10-26T16:02:58.954Z,66605.59
2022-10-26T16:08:02.858Z,66530.69
2022-10-26T16:13:12.244Z,66481.38
2022-10-26T16:18:17.354Z,66456.66
2022-10-26T16:23:21.198Z,66474.91
2022-10-26T16:28:24.930Z,66428.28
2022-10-26T16:33:30.458Z,66430.34
2022-10-26T16:38:34.642Z,66382.63
2022-10-26T16:43:40.298Z,66388.00
2022-10-26T16:48:45.824Z,66415.91
2022-10-26T16:53:50.978Z,66465.16
2022-10-26T16:58:57.737Z,66432.03
2022-10-26T17:09:07.626Z,66555.06
2022-10-26T17:14:11.745Z,66492.56
2022-10-26T17:19:17.081Z,66502.84
2022-10-26T17:24:21.033Z,66431.50
2022-10-26T17:29:25.071Z,66431.50
2022-10-26T17:34:30.375Z,66477.66
2022-10-26T17:39:34.272Z,66547.50
2022-10-26T17:44:39.189Z,66578.72
2022-10-26T17:49:44.542Z,66578.56
2022-10-26T17:54:48.265Z,66544.66
2022-10-26T17:59:52.193Z,66552.25
2022-10-26T18:04:57.438Z,66565.75
2022-10-26T18:10:14.048Z,66463.00
2022-10-26T18:15:25.555Z,66505.59
2022-10-26T18:20:30.909Z,66432.31
2022-10-26T18:25:36.233Z,66458.72
2022-10-26T18:30:40.247Z,66441.00
2022-10-26T18:35:46.385Z,66459.97
2022-10-26T18:40:53.852Z,66442.69
2022-10-26T18:46:05.580Z,66437.31
2022-10-26T18:51:12.464Z,66484.66
2022-10-26T18:56:18.920Z,66452.97
2022-10-26T19:01:24.771Z,66484.06
2022-10-26T19:06:32.622Z,66470.69
2022-10-26T19:11:37.145Z,66431.88
2022-10-26T19:16:45.846Z,66401.88
2022-10-26T19:21:53.936Z,66420.75
2022-10-26T19:26:57.898Z,66433.09
2022-10-26T19:32:02.956Z,66425.44
2022-10-26T19:37:09.589Z,66433.50
2022-10-26T19:42:13.538Z,66407.34
2022-10-26T19:47:17.336Z,66422.91
2022-10-26T19:52:22.548Z,66477.59
2022-10-26T19:57:26.401Z,66463.63
2022-10-26T20:02:30.156Z,66428.72
2022-10-26T20:07:35.495Z,66452.81
2022-10-26T20:12:39.392Z,66417.56
2022-10-26T20:17:43.131Z,66433.66
2022-10-26T20:22:48.606Z,66400.16
2022-10-26T20:27:52.945Z,66348.22
2022-10-26T20:32:57.689Z,66363.31
2022-10-26T20:38:04.012Z,66365.91
2022-10-26T20:43:10.228Z,66334.25
2022-10-26T20:48:14.982Z,66285.88
2022-10-26T20:53:26.651Z,66320.47
2022-10-26T20:58:39.147Z,66284.91
2022-10-26T21:03:43.076Z,66263.91
2022-10-26T21:08:51.445Z,66297.16
2022-10-26T21:13:56.046Z,66297.16
2022-10-26T21:19:01.534Z,66284.28
2022-10-26T21:24:07.737Z,66382.53
2022-10-26T21:29:12.128Z,66405.63
2022-10-26T21:34:16.050Z,66434.09
2022-10-26T21:39:21.263Z,66416.84
2022-10-26T21:44:40.348Z,66431.31
2022-10-26T21:49:45.026Z,66405.09
2022-10-26T21:54:50.264Z,66410.91
2022-10-26T21:59:54.182Z,66454.66
2022-10-26T22:04:57.987Z,66360.63
2022-10-26T22:10:11.168Z,66355.16
2022-10-26T22:15:15.453Z,66306.78
2022-10-26T22:20:19.513Z,66281.84
2022-10-26T22:25:24.633Z,66279.53
2022-10-26T22:30:28.411Z,66318.63
2022-10-26T22:35:32.165Z,66254.78
2022-10-26T22:40:37.376Z,66346.03
2022-10-26T22:45:41.226Z,66302.50
2022-10-26T22:50:45.042Z,66277.84
2022-10-26T22:55:50.540Z,66250.13
2022-10-26T23:00:54.297Z,66291.78
2022-10-26T23:05:58.429Z,66332.56
2022-10-26T23:11:06.618Z,66334.16
2022-10-26T23:16:12.493Z,66343.53
2022-10-26T23:21:17.711Z,66284.44
2022-10-26T23:26:23.299Z,66260.75
2022-10-26T23:31:28.532Z,66339.00
2022-10-26T23:36:32.431Z,66305.28
2022-10-26T23:41:37.571Z,66391.13
2022-10-26T23:46:41.341Z,66382.00
2022-10-26T23:51:45.077Z,66407.88
2022-10-26T23:56:50.286Z,66337.38
